Brilhamar — CUGK3 — position and weather

sailwx.info

Track history (hours):
 
Tides and Currents Weather Stations Pressure Air Temp Water Temp Dewpoint Dewpoint Depression Visibility Wind Speed Wind Dir Waves Ship Positions

Brilhamar

Last reported at 2017-Nov-18 00:17 UTC. Time now 2017-Nov-18 04:54 UTC.
Position N 37°02' W 008°16'.

Length 17 m.

Type: Fishing. MMSI: 263419980.

Date/timePositionNaut miles runAvg speedWind from/ knotsBaromVisibWave heightAir tempDewpointWater temp
2017-Nov-18 00:17N 37°02' W 008°16'2 7.4
2017-Nov-18 00:00N 37°02' W 008°19'0 0.6
2017-Nov-17 23:29N 37°02' W 008°19'0 0.3
2017-Nov-17 22:50N 37°02' W 008°19'0 0.1
2017-Nov-17 22:30N 37°02' W 008°19'0 0.2
2017-Nov-17 22:00N 37°02' W 008°19'0 0.5
2017-Nov-17 21:30N 37°02' W 008°20'0 0.0
2017-Nov-17 21:00N 37°02' W 008°20'0 0.0
2017-Nov-17 20:30N 37°02' W 008°20'0 0.0
2017-Nov-17 20:00N 37°02' W 008°20'0 0.0
2017-Nov-17 19:30N 37°02' W 008°20'0 0.0
2017-Nov-17 19:00N 37°02' W 008°20'0 0.0
2017-Nov-17 18:26N 37°02' W 008°20'1 1.5
2017-Nov-17 18:00N 37°02' W 008°19'4 7.0
2017-Nov-17 17:30N 37°02' W 008°15'2 0.1
2017-Nov-17 01:32N 37°02' W 008°17'0 6.8
2017-Nov-17 01:30N 37°01' W 008°17'2 2.9
2017-Nov-17 00:49N 37°01' W 008°20'0 0.6
2017-Nov-17 00:29N 37°01' W 008°20'0 0.2
2017-Nov-16 23:59N 37°02' W 008°20'0 0.3
2017-Nov-16 23:30N 37°01' W 008°20'0 0.5
2017-Nov-16 22:59N 37°02' W 008°20'0 0.3
2017-Nov-16 22:30N 37°02' W 008°20'0 0.1
2017-Nov-16 22:00N 37°02' W 008°19'0 0.5
2017-Nov-16 21:30N 37°02' W 008°20'0 0.1
2017-Nov-16 21:01N 37°02' W 008°20'0 0.1
2017-Nov-16 20:29N 37°02' W 008°20'0 0.0
2017-Nov-16 19:59N 37°02' W 008°20'0 0.0
2017-Nov-16 19:20N 37°02' W 008°20'0 0.0
2017-Nov-16 18:58N 37°02' W 008°20'0 0.0
2017-Nov-16 18:30N 37°02' W 008°20'2 3.4
2017-Nov-16 18:00N 37°02' W 008°18'4 6.7
2017-Nov-16 17:28N 37°03' W 008°13'1 0.1
2017-Nov-16 00:29N 37°02' W 008°15'3 6.3
2017-Nov-16 00:00N 37°02' W 008°18'1 2.2
2017-Nov-15 23:30N 37°02' W 008°20'0 0.2
2017-Nov-15 23:00N 37°02' W 008°20'0 0.3
2017-Nov-15 22:30N 37°02' W 008°19'0 0.4
2017-Nov-15 22:00N 37°02' W 008°20'0 0.0
2017-Nov-15 21:30N 37°02' W 008°20'0 0.0
2017-Nov-15 21:00N 37°02' W 008°20'0 0.0
2017-Nov-15 20:30N 37°02' W 008°20'0 0.0
2017-Nov-15 20:00N 37°02' W 008°20'0 0.0
2017-Nov-15 19:30N 37°02' W 008°20'0 0.0
2017-Nov-15 19:00N 37°02' W 008°20'0 0.0
2017-Nov-15 18:30N 37°02' W 008°20'2 3.8
2017-Nov-15 18:00N 37°03' W 008°18'3 6.7
2017-Nov-15 17:29N 37°03' W 008°13'3 0.2
2017-Nov-15 02:13N 37°02' W 008°16'1 6.5
2017-Nov-15 02:00N 37°02' W 008°18'2 4.0
2017-Nov-15 01:30N 37°01' W 008°20'0 0.6
2017-Nov-15 00:56N 37°01' W 008°20'0 0.5
2017-Nov-15 00:30N 37°02' W 008°20'0 0.5
2017-Nov-15 00:00N 37°02' W 008°20'0 0.1
2017-Nov-14 23:30N 37°02' W 008°20'0 0.3
2017-Nov-14 23:00N 37°02' W 008°19'0 0.3
2017-Nov-14 22:28N 37°02' W 008°20'0 0.2
2017-Nov-14 22:00N 37°02' W 008°20'0 0.2
2017-Nov-14 21:30N 37°02' W 008°20'0 0.4
2017-Nov-14 21:00N 37°02' W 008°19'0 0.1
2017-Nov-14 20:30N 37°02' W 008°19'0 0.0
2017-Nov-14 19:57N 37°02' W 008°19'0 0.0
2017-Nov-14 19:30N 37°02' W 008°19'0 0.1
2017-Nov-14 19:00N 37°02' W 008°19'0 0.0
2017-Nov-14 18:31N 37°02' W 008°19'0 0.6
2017-Nov-14 18:00N 37°02' W 008°19'3 6.9
2017-Nov-14 17:30N 37°02' W 008°15'5 6.4
2017-Nov-14 16:45N 37°03' W 008°09'  
2017-Nov-10 22:48N 37°02' W 008°16'2 6.4
2017-Nov-10 22:29N 37°01' W 008°18'2 4.1
2017-Nov-10 22:01N 37°01' W 008°20'0 0.3
2017-Nov-10 21:31N 37°01' W 008°20'0 0.2
2017-Nov-10 21:00N 37°01' W 008°20'1 2.1
2017-Nov-10 20:18N 37°01' W 008°22'0 0.8
2017-Nov-10 20:00N 37°01' W 008°22'2 4.2
2017-Nov-10 19:30N 37°01' W 008°20'1 2.5
2017-Nov-10 18:59N 37°02' W 008°21'2 4.3
2017-Nov-10 18:30N 37°02' W 008°18'1 2.2
2017-Nov-10 18:01N 37°01' W 008°19'0 0.2
2017-Nov-10 17:31N 37°01' W 008°19'1 1.5
2017-Nov-10 17:01N 37°01' W 008°20'0 0.6
2017-Nov-10 16:30N 37°01' W 008°19'3 6.8
2017-Nov-10 16:01N 37°02' W 008°15'  
Track history (hours):
 
Tides and Currents Weather Stations Pressure Air Temp Water Temp Dewpoint Dewpoint Depression Visibility Wind Speed Wind Dir Waves Ship Positions

Brilhamar

Last reported at 2017-Nov-18 00:17 UTC. Time now 2017-Nov-18 04:54 UTC.
Position N 37°02' W 008°16'.

Length 17 m.

Type: Fishing. MMSI: 263419980.

Date/timePositionNaut miles runAvg speedWind from/ knotsBaromVisibWave heightAir tempDewpointWater temp
2017-Nov-18 00:17N 37°02' W 008°16'2 7.4
2017-Nov-18 00:00N 37°02' W 008°19'0 0.6
2017-Nov-17 23:29N 37°02' W 008°19'0 0.3
2017-Nov-17 22:50N 37°02' W 008°19'0 0.1
2017-Nov-17 22:30N 37°02' W 008°19'0 0.2
2017-Nov-17 22:00N 37°02' W 008°19'0 0.5
2017-Nov-17 21:30N 37°02' W 008°20'0 0.0
2017-Nov-17 21:00N 37°02' W 008°20'0 0.0
2017-Nov-17 20:30N 37°02' W 008°20'0 0.0
2017-Nov-17 20:00N 37°02' W 008°20'0 0.0
2017-Nov-17 19:30N 37°02' W 008°20'0 0.0
2017-Nov-17 19:00N 37°02' W 008°20'0 0.0
2017-Nov-17 18:26N 37°02' W 008°20'1 1.5
2017-Nov-17 18:00N 37°02' W 008°19'4 7.0
2017-Nov-17 17:30N 37°02' W 008°15'2 0.1
2017-Nov-17 01:32N 37°02' W 008°17'0 6.8
2017-Nov-17 01:30N 37°01' W 008°17'2 2.9
2017-Nov-17 00:49N 37°01' W 008°20'0 0.6
2017-Nov-17 00:29N 37°01' W 008°20'0 0.2
2017-Nov-16 23:59N 37°02' W 008°20'0 0.3
2017-Nov-16 23:30N 37°01' W 008°20'0 0.5
2017-Nov-16 22:59N 37°02' W 008°20'0 0.3
2017-Nov-16 22:30N 37°02' W 008°20'0 0.1
2017-Nov-16 22:00N 37°02' W 008°19'0 0.5
2017-Nov-16 21:30N 37°02' W 008°20'0 0.1
2017-Nov-16 21:01N 37°02' W 008°20'0 0.1
2017-Nov-16 20:29N 37°02' W 008°20'0 0.0
2017-Nov-16 19:59N 37°02' W 008°20'0 0.0
2017-Nov-16 19:20N 37°02' W 008°20'0 0.0
2017-Nov-16 18:58N 37°02' W 008°20'0 0.0
2017-Nov-16 18:30N 37°02' W 008°20'2 3.4
2017-Nov-16 18:00N 37°02' W 008°18'4 6.7
2017-Nov-16 17:28N 37°03' W 008°13'1 0.1
2017-Nov-16 00:29N 37°02' W 008°15'3 6.3
2017-Nov-16 00:00N 37°02' W 008°18'1 2.2
2017-Nov-15 23:30N 37°02' W 008°20'0 0.2
2017-Nov-15 23:00N 37°02' W 008°20'0 0.3
2017-Nov-15 22:30N 37°02' W 008°19'0 0.4
2017-Nov-15 22:00N 37°02' W 008°20'0 0.0
2017-Nov-15 21:30N 37°02' W 008°20'0 0.0
2017-Nov-15 21:00N 37°02' W 008°20'0 0.0
2017-Nov-15 20:30N 37°02' W 008°20'0 0.0
2017-Nov-15 20:00N 37°02' W 008°20'0 0.0
2017-Nov-15 19:30N 37°02' W 008°20'0 0.0
2017-Nov-15 19:00N 37°02' W 008°20'0 0.0
2017-Nov-15 18:30N 37°02' W 008°20'2 3.8
2017-Nov-15 18:00N 37°03' W 008°18'3 6.7
2017-Nov-15 17:29N 37°03' W 008°13'3 0.2
2017-Nov-15 02:13N 37°02' W 008°16'1 6.5
2017-Nov-15 02:00N 37°02' W 008°18'2 4.0
2017-Nov-15 01:30N 37°01' W 008°20'0 0.6
2017-Nov-15 00:56N 37°01' W 008°20'0 0.5
2017-Nov-15 00:30N 37°02' W 008°20'0 0.5
2017-Nov-15 00:00N 37°02' W 008°20'0 0.1
2017-Nov-14 23:30N 37°02' W 008°20'0 0.3
2017-Nov-14 23:00N 37°02' W 008°19'0 0.3
2017-Nov-14 22:28N 37°02' W 008°20'0 0.2
2017-Nov-14 22:00N 37°02' W 008°20'0 0.2
2017-Nov-14 21:30N 37°02' W 008°20'0 0.4
2017-Nov-14 21:00N 37°02' W 008°19'0 0.1
2017-Nov-14 20:30N 37°02' W 008°19'0 0.0
2017-Nov-14 19:57N 37°02' W 008°19'0 0.0
2017-Nov-14 19:30N 37°02' W 008°19'0 0.1
2017-Nov-14 19:00N 37°02' W 008°19'0 0.0
2017-Nov-14 18:31N 37°02' W 008°19'0 0.6
2017-Nov-14 18:00N 37°02' W 008°19'3 6.9
2017-Nov-14 17:30N 37°02' W 008°15'5 6.4
2017-Nov-14 16:45N 37°03' W 008°09'  
2017-Nov-10 22:48N 37°02' W 008°16'2 6.4
2017-Nov-10 22:29N 37°01' W 008°18'2 4.1
2017-Nov-10 22:01N 37°01' W 008°20'0 0.3
2017-Nov-10 21:31N 37°01' W 008°20'0 0.2
2017-Nov-10 21:00N 37°01' W 008°20'1 2.1
2017-Nov-10 20:18N 37°01' W 008°22'0 0.8
2017-Nov-10 20:00N 37°01' W 008°22'2 4.2
2017-Nov-10 19:30N 37°01' W 008°20'1 2.5
2017-Nov-10 18:59N 37°02' W 008°21'2 4.3
2017-Nov-10 18:30N 37°02' W 008°18'1 2.2
2017-Nov-10 18:01N 37°01' W 008°19'0 0.2
2017-Nov-10 17:31N 37°01' W 008°19'1 1.5
2017-Nov-10 17:01N 37°01' W 008°20'0 0.6
2017-Nov-10 16:30N 37°01' W 008°19'3 6.8
2017-Nov-10 16:01N 37°02' W 008°15'  

Dump ship's entire track history